sensor_id;sensor_type;location;lat;lon;timestamp;temperature;humidity
78704;SHT31;68034;51.966;5.676;2023-04-03T00:20:26;9.1;53.9
78704;SHT31;68034;51.966;5.676;2023-04-03T00:39:41;8.4;55.1
78704;SHT31;68034;51.966;5.676;2023-04-03T00:47:22;8.3;56.1
78704;SHT31;68034;51.966;5.676;2023-04-03T01:00:14;8.0;55.6
78704;SHT31;68034;51.966;5.676;2023-04-03T01:03:54;7.9;57.8
78704;SHT31;68034;51.966;5.676;2023-04-03T01:11:38;7.7;57.8
78704;SHT31;68034;51.966;5.676;2023-04-03T01:37:57;7.4;58.5
78704;SHT31;68034;51.966;5.676;2023-04-03T01:41:33;7.3;59.9
78704;SHT31;68034;51.966;5.676;2023-04-03T01:47:52;7.3;58.8
78704;SHT31;68034;51.966;5.676;2023-04-03T01:52:35;7.2;58.7
78704;SHT31;68034;51.966;5.676;2023-04-03T01:56:13;7.2;57.0
78704;SHT31;68034;51.966;5.676;2023-04-03T02:04:26;7.2;58.5
78704;SHT31;68034;51.966;5.676;2023-04-03T02:13:03;7.1;58.0
78704;SHT31;68034;51.966;5.676;2023-04-03T02:31:48;7.0;60.1
78704;SHT31;68034;51.966;5.676;2023-04-03T02:38:18;7.0;59.7
78704;SHT31;68034;51.966;5.676;2023-04-03T02:41:22;6.9;60.7
78704;SHT31;68034;51.966;5.676;2023-04-03T02:44:13;6.9;60.7
78704;SHT31;68034;51.966;5.676;2023-04-03T02:47:04;6.8;60.7
78704;SHT31;68034;51.966;5.676;2023-04-03T02:52:26;6.8;61.1
78704;SHT31;68034;51.966;5.676;2023-04-03T02:55:19;6.8;60.6
78704;SHT31;68034;51.966;5.676;2023-04-03T03:01:39;6.7;60.8
78704;SHT31;68034;51.966;5.676;2023-04-03T03:18:13;6.5;61.3
78704;SHT31;68034;51.966;5.676;2023-04-03T03:25:13;6.4;61.9
78704;SHT31;68034;51.966;5.676;2023-04-03T03:27:53;6.4;62.5
78704;SHT31;68034;51.966;5.676;2023-04-03T03:31:16;6.4;62.7
78704;SHT31;68034;51.966;5.676;2023-04-03T03:35:53;6.3;62.5
78704;SHT31;68034;51.966;5.676;2023-04-03T03:51:18;6.2;62.7
78704;SHT31;68034;51.966;5.676;2023-04-03T04:06:46;6.2;62.0
78704;SHT31;68034;51.966;5.676;2023-04-03T04:29:33;6.0;62.3
78704;SHT31;68034;51.966;5.676;2023-04-03T05:06:10;5.8;63.4
78704;SHT31;68034;51.966;5.676;2023-04-03T05:11:17;5.7;62.5
78704;SHT31;68034;51.966;5.676;2023-04-03T05:23:56;5.6;62.9
78704;SHT31;68034;51.966;5.676;2023-04-03T05:26:41;5.5;63.3
78704;SHT31;68034;51.966;5.676;2023-04-03T05:30:45;5.5;62.8
78704;SHT31;68034;51.966;5.676;2023-04-03T06:01:49;5.3;63.5
78704;SHT31;68034;51.966;5.676;2023-04-03T06:08:26;5.3;63.5
78704;SHT31;68034;51.966;5.676;2023-04-03T06:17:53;5.3;63.6
78704;SHT31;68034;51.966;5.676;2023-04-03T06:22:16;5.3;64.1
78704;SHT31;68034;51.966;5.676;2023-04-03T06:25:38;5.4;63.9
78704;SHT31;68034;51.966;5.676;2023-04-03T06:28:14;5.4;63.6
78704;SHT31;68034;51.966;5.676;2023-04-03T06:30:58;5.4;64.1
78704;SHT31;68034;51.966;5.676;2023-04-03T06:33:43;5.5;63.6
78704;SHT31;68034;51.966;5.676;2023-04-03T06:36:25;5.6;63.3
78704;SHT31;68034;51.966;5.676;2023-04-03T06:39:03;5.7;63.5
78704;SHT31;68034;51.966;5.676;2023-04-03T06:41:53;5.7;62.9
78704;SHT31;68034;51.966;5.676;2023-04-03T06:44:27;5.8;62.5
78704;SHT31;68034;51.966;5.676;2023-04-03T06:47:20;5.8;62.7
78704;SHT31;68034;51.966;5.676;2023-04-03T06:50:03;5.9;62.8
78704;SHT31;68034;51.966;5.676;2023-04-03T06:53:27;5.9;62.7
78704;SHT31;68034;51.966;5.676;2023-04-03T06:56:24;6.0;62.7
78704;SHT31;68034;51.966;5.676;2023-04-03T07:17:37;6.5;60.8
78704;SHT31;68034;51.966;5.676;2023-04-03T07:20:27;6.7;59.4
78704;SHT31;68034;51.966;5.676;2023-04-03T07:37:56;7.3;55.8
78704;SHT31;68034;51.966;5.676;2023-04-03T08:06:22;8.2;50.4
78704;SHT31;68034;51.966;5.676;2023-04-03T08:21:54;9.0;46.8
78704;SHT31;68034;51.966;5.676;2023-04-03T08:24:32;9.0;45.3
78704;SHT31;68034;51.966;5.676;2023-04-03T08:37:09;9.2;41.1
78704;SHT31;68034;51.966;5.676;2023-04-03T08:44:04;9.3;42.5
78704;SHT31;68034;51.966;5.676;2023-04-03T08:49:53;9.4;39.0
78704;SHT31;68034;51.966;5.676;2023-04-03T08:52:38;9.5;37.4
78704;SHT31;68034;51.966;5.676;2023-04-03T08:55:33;9.5;38.6
78704;SHT31;68034;51.966;5.676;2023-04-03T08:58:52;9.5;36.9
78704;SHT31;68034;51.966;5.676;2023-04-03T09:04:23;9.6;35.6
78704;SHT31;68034;51.966;5.676;2023-04-03T09:09:11;9.6;36.3
78704;SHT31;68034;51.966;5.676;2023-04-03T09:11:54;9.7;37.6
78704;SHT31;68034;51.966;5.676;2023-04-03T09:25:56;10.1;33.0
78704;SHT31;68034;51.966;5.676;2023-04-03T09:29:04;10.1;31.9
78704;SHT31;68034;51.966;5.676;2023-04-03T09:31:40;10.1;31.4
78704;SHT31;68034;51.966;5.676;2023-04-03T09:34:17;10.1;30.7
78704;SHT31;68034;51.966;5.676;2023-04-03T09:37:00;10.1;30.1
78704;SHT31;68034;51.966;5.676;2023-04-03T09:40:12;10.1;29.4
78704;SHT31;68034;51.966;5.676;2023-04-03T09:43:19;10.1;29.5
78704;SHT31;68034;51.966;5.676;2023-04-03T09:45:57;10.1;30.1
78704;SHT31;68034;51.966;5.676;2023-04-03T09:49:11;10.1;29.9
78704;SHT31;68034;51.966;5.676;2023-04-03T09:52:22;10.2;31.5
78704;SHT31;68034;51.966;5.676;2023-04-03T09:55:17;10.3;32.0
78704;SHT31;68034;51.966;5.676;2023-04-03T10:04:24;10.5;30.2
78704;SHT31;68034;51.966;5.676;2023-04-03T10:09:18;10.5;31.4
78704;SHT31;68034;51.966;5.676;2023-04-03T10:12:05;10.6;29.5
78704;SHT31;68034;51.966;5.676;2023-04-03T10:15:50;10.7;29.0
78704;SHT31;68034;51.966;5.676;2023-04-03T10:19:53;10.8;29.5
78704;SHT31;68034;51.966;5.676;2023-04-03T10:25:50;10.8;30.6
78704;SHT31;68034;51.966;5.676;2023-04-03T10:29:19;10.9;30.0
78704;SHT31;68034;51.966;5.676;2023-04-03T10:31:56;10.9;30.0
78704;SHT31;68034;51.966;5.676;2023-04-03T10:34:32;10.9;29.6
78704;SHT31;68034;51.966;5.676;2023-04-03T10:37:11;10.9;30.4
78704;SHT31;68034;51.966;5.676;2023-04-03T10:39:50;11.0;29.0
78704;SHT31;68034;51.966;5.676;2023-04-03T10:42:34;11.1;30.1
78704;SHT31;68034;51.966;5.676;2023-04-03T10:45:23;11.2;29.0
78704;SHT31;68034;51.966;5.676;2023-04-03T10:48:06;11.2;30.0
78704;SHT31;68034;51.966;5.676;2023-04-03T10:50:46;11.2;30.7
78704;SHT31;68034;51.966;5.676;2023-04-03T10:53:30;11.2;31.1
78704;SHT31;68034;51.966;5.676;2023-04-03T10:56:15;11.3;32.1
78704;SHT31;68034;51.966;5.676;2023-04-03T10:58:56;11.3;31.9
78704;SHT31;68034;51.966;5.676;2023-04-03T11:01:33;11.3;32.6
78704;SHT31;68034;51.966;5.676;2023-04-03T11:04:09;11.4;32.0
78704;SHT31;68034;51.966;5.676;2023-04-03T11:06:44;11.4;31.1
78704;SHT31;68034;51.966;5.676;2023-04-03T11:09:21;11.4;31.8
78704;SHT31;68034;51.966;5.676;2023-04-03T11:12:13;11.5;31.2
78704;SHT31;68034;51.966;5.676;2023-04-03T11:14:45;11.5;30.9
78704;SHT31;68034;51.966;5.676;2023-04-03T11:17:27;11.5;31.4
78704;SHT31;68034;51.966;5.676;2023-04-03T11:20:19;11.5;30.7
78704;SHT31;68034;51.966;5.676;2023-04-03T11:23:00;11.6;31.1
78704;SHT31;68034;51.966;5.676;2023-04-03T11:25:44;11.6;30.8
78704;SHT31;68034;51.966;5.676;2023-04-03T11:28:24;11.6;30.3
78704;SHT31;68034;51.966;5.676;2023-04-03T11:37:37;11.6;30.1
78704;SHT31;68034;51.966;5.676;2023-04-03T11:40:25;11.7;30.5
78704;SHT31;68034;51.966;5.676;2023-04-03T11:43:31;11.7;30.6
78704;SHT31;68034;51.966;5.676;2023-04-03T12:07:38;12.4;30.4
78704;SHT31;68034;51.966;5.676;2023-04-03T12:10:20;12.6;29.6
78704;SHT31;68034;51.966;5.676;2023-04-03T12:15:53;12.9;30.2
78704;SHT31;68034;51.966;5.676;2023-04-03T12:40:28;14.1;30.1
78704;SHT31;68034;51.966;5.676;2023-04-03T12:51:34;14.7;28.4
78704;SHT31;68034;51.966;5.676;2023-04-03T12:54:27;14.9;28.1
78704;SHT31;68034;51.966;5.676;2023-04-03T12:57:11;15.0;26.8
78704;SHT31;68034;51.966;5.676;2023-04-03T12:59:42;15.1;27.6
78704;SHT31;68034;51.966;5.676;2023-04-03T13:02:25;15.2;28.4
78704;SHT31;68034;51.966;5.676;2023-04-03T13:10:21;15.5;28.5
78704;SHT31;68034;51.966;5.676;2023-04-03T13:15:40;15.6;26.7
78704;SHT31;68034;51.966;5.676;2023-04-03T13:25:03;15.8;28.0
78704;SHT31;68034;51.966;5.676;2023-04-03T13:27:47;15.9;26.8
78704;SHT31;68034;51.966;5.676;2023-04-03T13:30:29;15.9;28.1
78704;SHT31;68034;51.966;5.676;2023-04-03T13:33:23;16.0;26.5
78704;SHT31;68034;51.966;5.676;2023-04-03T13:36:19;16.1;26.6
78704;SHT31;68034;51.966;5.676;2023-04-03T13:40:52;16.2;26.3
78704;SHT31;68034;51.966;5.676;2023-04-03T13:43:27;16.3;25.7
78704;SHT31;68034;51.966;5.676;2023-04-03T13:46:20;16.3;25.7
78704;SHT31;68034;51.966;5.676;2023-04-03T13:49:37;16.4;26.2
78704;SHT31;68034;51.966;5.676;2023-04-03T13:53:08;16.4;26.3
78704;SHT31;68034;51.966;5.676;2023-04-03T14:04:33;16.8;26.1
78704;SHT31;68034;51.966;5.676;2023-04-03T14:07:00;16.9;25.2
78704;SHT31;68034;51.966;5.676;2023-04-03T14:09:58;17.0;25.0
78704;SHT31;68034;51.966;5.676;2023-04-03T14:12:49;17.1;25.7
78704;SHT31;68034;51.966;5.676;2023-04-03T14:15:45;17.2;25.3
78704;SHT31;68034;51.966;5.676;2023-04-03T14:20:47;17.3;24.4
78704;SHT31;68034;51.966;5.676;2023-04-03T14:26:53;17.5;25.5
78704;SHT31;68034;51.966;5.676;2023-04-03T14:30:22;17.5;26.0
78704;SHT31;68034;51.966;5.676;2023-04-03T14:37:04;17.7;25.4
78704;SHT31;68034;51.966;5.676;2023-04-03T14:44:52;18.0;26.2
78704;SHT31;68034;51.966;5.676;2023-04-03T14:50:58;18.2;25.3
78704;SHT31;68034;51.966;5.676;2023-04-03T14:54:21;18.2;25.5
78704;SHT31;68034;51.966;5.676;2023-04-03T14:56:59;18.2;25.5
78704;SHT31;68034;51.966;5.676;2023-04-03T14:59:31;18.3;26.3
78704;SHT31;68034;51.966;5.676;2023-04-03T15:02:35;18.3;24.6
78704;SHT31;68034;51.966;5.676;2023-04-03T15:05:11;18.4;24.8
78704;SHT31;68034;51.966;5.676;2023-04-03T15:07:49;18.4;25.2
78704;SHT31;68034;51.966;5.676;2023-04-03T15:10:21;18.5;24.7
78704;SHT31;68034;51.966;5.676;2023-04-03T15:13:15;18.5;24.5
78704;SHT31;68034;51.966;5.676;2023-04-03T15:16:09;18.5;24.3
78704;SHT31;68034;51.966;5.676;2023-04-03T15:20:45;18.5;24.6
78704;SHT31;68034;51.966;5.676;2023-04-03T15:23:20;18.6;25.3
78704;SHT31;68034;51.966;5.676;2023-04-03T15:25:56;18.6;25.0
78704;SHT31;68034;51.966;5.676;2023-04-03T15:28:30;18.6;25.3
78704;SHT31;68034;51.966;5.676;2023-04-03T15:31:08;18.6;25.0
78704;SHT31;68034;51.966;5.676;2023-04-03T15:33:44;18.5;26.5
78704;SHT31;68034;51.966;5.676;2023-04-03T15:36:13;18.4;26.9
78704;SHT31;68034;51.966;5.676;2023-04-03T15:38:43;18.4;25.6
78704;SHT31;68034;51.966;5.676;2023-04-03T15:41:12;18.4;25.0
78704;SHT31;68034;51.966;5.676;2023-04-03T15:43:42;18.3;25.7
78704;SHT31;68034;51.966;5.676;2023-04-03T15:46:17;18.2;26.1
78704;SHT31;68034;51.966;5.676;2023-04-03T15:48:51;18.1;24.9
78704;SHT31;68034;51.966;5.676;2023-04-03T15:55:37;18.0;26.1
78704;SHT31;68034;51.966;5.676;2023-04-03T15:58:11;18.0;25.7
78704;SHT31;68034;51.966;5.676;2023-04-03T16:00:48;18.0;26.2
78704;SHT31;68034;51.966;5.676;2023-04-03T16:03:28;18.0;27.2
78704;SHT31;68034;51.966;5.676;2023-04-03T16:06:03;18.0;27.3
78704;SHT31;68034;51.966;5.676;2023-04-03T16:08:32;18.0;26.3
78704;SHT31;68034;51.966;5.676;2023-04-03T16:13:06;18.0;26.4
78704;SHT31;68034;51.966;5.676;2023-04-03T16:15:36;17.8;26.6
78704;SHT31;68034;51.966;5.676;2023-04-03T16:18:09;17.6;26.1
78704;SHT31;68034;51.966;5.676;2023-04-03T16:21:54;17.5;27.1
78704;SHT31;68034;51.966;5.676;2023-04-03T16:24:35;17.3;27.0
78704;SHT31;68034;51.966;5.676;2023-04-03T16:27:07;17.2;27.0
78704;SHT31;68034;51.966;5.676;2023-04-03T16:29:38;17.1;28.8
78704;SHT31;68034;51.966;5.676;2023-04-03T16:32:07;17.1;27.7
78704;SHT31;68034;51.966;5.676;2023-04-03T16:34:39;17.2;27.6
78704;SHT31;68034;51.966;5.676;2023-04-03T16:37:12;17.2;27.4
78704;SHT31;68034;51.966;5.676;2023-04-03T16:39:41;17.1;27.1
78704;SHT31;68034;51.966;5.676;2023-04-03T16:42:09;17.0;27.7
78704;SHT31;68034;51.966;5.676;2023-04-03T16:44:39;16.8;28.1
78704;SHT31;68034;51.966;5.676;2023-04-03T16:47:08;16.7;28.7
78704;SHT31;68034;51.966;5.676;2023-04-03T16:49:38;16.7;27.9
78704;SHT31;68034;51.966;5.676;2023-04-03T16:52:07;16.6;27.4
78704;SHT31;68034;51.966;5.676;2023-04-03T16:54:36;16.4;28.1
78704;SHT31;68034;51.966;5.676;2023-04-03T16:57:05;16.3;29.2
78704;SHT31;68034;51.966;5.676;2023-04-03T16:59:34;16.2;28.3
78704;SHT31;68034;51.966;5.676;2023-04-03T17:02:03;16.1;28.9
78704;SHT31;68034;51.966;5.676;2023-04-03T17:04:34;16.0;28.2
78704;SHT31;68034;51.966;5.676;2023-04-03T17:07:02;15.9;28.3
78704;SHT31;68034;51.966;5.676;2023-04-03T17:09:32;15.7;29.9
78704;SHT31;68034;51.966;5.676;2023-04-03T17:12:01;15.6;29.8
78704;SHT31;68034;51.966;5.676;2023-04-03T17:14:31;15.4;29.3
78704;SHT31;68034;51.966;5.676;2023-04-03T17:17:00;15.3;29.7
78704;SHT31;68034;51.966;5.676;2023-04-03T17:19:30;15.3;29.7
78704;SHT31;68034;51.966;5.676;2023-04-03T17:21:59;15.2;32.3
78704;SHT31;68034;51.966;5.676;2023-04-03T17:24:28;15.1;32.9
78704;SHT31;68034;51.966;5.676;2023-04-03T17:26:57;15.1;31.5
78704;SHT31;68034;51.966;5.676;2023-04-03T17:29:26;15.1;32.4
78704;SHT31;68034;51.966;5.676;2023-04-03T17:31:56;15.1;32.7
78704;SHT31;68034;51.966;5.676;2023-04-03T17:34:25;15.0;30.2
78704;SHT31;68034;51.966;5.676;2023-04-03T17:36:55;15.0;30.3
78704;SHT31;68034;51.966;5.676;2023-04-03T17:39:24;15.0;31.0
78704;SHT31;68034;51.966;5.676;2023-04-03T17:41:56;14.9;30.8
78704;SHT31;68034;51.966;5.676;2023-04-03T17:44:32;15.0;31.2
78704;SHT31;68034;51.966;5.676;2023-04-03T17:47:01;15.1;31.5
78704;SHT31;68034;51.966;5.676;2023-04-03T17:49:31;15.1;30.0
78704;SHT31;68034;51.966;5.676;2023-04-03T17:52:00;15.1;32.1
78704;SHT31;68034;51.966;5.676;2023-04-03T17:54:28;15.1;34.0
78704;SHT31;68034;51.966;5.676;2023-04-03T17:56:57;15.0;30.9
78704;SHT31;68034;51.966;5.676;2023-04-03T17:59:29;14.9;31.2
78704;SHT31;68034;51.966;5.676;2023-04-03T18:01:58;14.9;31.8
78704;SHT31;68034;51.966;5.676;2023-04-03T18:04:27;14.8;33.2
78704;SHT31;68034;51.966;5.676;2023-04-03T18:06:57;14.7;31.5
78704;SHT31;68034;51.966;5.676;2023-04-03T18:09:30;14.5;34.3
78704;SHT31;68034;51.966;5.676;2023-04-03T18:12:02;14.4;32.7
78704;SHT31;68034;51.966;5.676;2023-04-03T18:14:35;14.4;32.9
78704;SHT31;68034;51.966;5.676;2023-04-03T18:17:06;14.3;31.8
78704;SHT31;68034;51.966;5.676;2023-04-03T18:20:11;14.3;33.9
78704;SHT31;68034;51.966;5.676;2023-04-03T18:25:08;14.3;32.8
78704;SHT31;68034;51.966;5.676;2023-04-03T18:27:41;14.2;35.5
78704;SHT31;68034;51.966;5.676;2023-04-03T18:30:16;14.1;35.7
78704;SHT31;68034;51.966;5.676;2023-04-03T18:32:45;14.0;36.4
78704;SHT31;68034;51.966;5.676;2023-04-03T18:35:24;13.9;36.0
78704;SHT31;68034;51.966;5.676;2023-04-03T18:37:58;13.9;37.9
78704;SHT31;68034;51.966;5.676;2023-04-03T18:40:27;13.9;38.4
78704;SHT31;68034;51.966;5.676;2023-04-03T18:43:00;13.9;37.3
78704;SHT31;68034;51.966;5.676;2023-04-03T18:45:29;13.8;37.0
78704;SHT31;68034;51.966;5.676;2023-04-03T18:47:59;13.7;36.6
78704;SHT31;68034;51.966;5.676;2023-04-03T18:50:29;13.6;36.4
78704;SHT31;68034;51.966;5.676;2023-04-03T18:52:57;13.4;37.1
78704;SHT31;68034;51.966;5.676;2023-04-03T18:55:46;13.3;37.4
78704;SHT31;68034;51.966;5.676;2023-04-03T18:58:28;13.2;37.8
78704;SHT31;68034;51.966;5.676;2023-04-03T19:01:04;13.0;37.6
78704;SHT31;68034;51.966;5.676;2023-04-03T19:03:45;12.9;38.8
78704;SHT31;68034;51.966;5.676;2023-04-03T19:06:16;12.7;39.9
78704;SHT31;68034;51.966;5.676;2023-04-03T19:08:51;12.6;39.8
78704;SHT31;68034;51.966;5.676;2023-04-03T19:11:20;12.4;40.2
78704;SHT31;68034;51.966;5.676;2023-04-03T19:13:51;12.3;40.2
78704;SHT31;68034;51.966;5.676;2023-04-03T19:16:27;12.2;40.7
78704;SHT31;68034;51.966;5.676;2023-04-03T19:18:56;12.1;40.8
78704;SHT31;68034;51.966;5.676;2023-04-03T19:21:25;12.0;40.4
78704;SHT31;68034;51.966;5.676;2023-04-03T19:23:54;11.9;40.8
78704;SHT31;68034;51.966;5.676;2023-04-03T19:28:45;11.8;40.6
78704;SHT31;68034;51.966;5.676;2023-04-03T21:37:06;8.8;48.8
78704;SHT31;68034;51.966;5.676;2023-04-03T21:39:37;8.8;46.7
78704;SHT31;68034;51.966;5.676;2023-04-03T21:42:07;8.8;47.1
78704;SHT31;68034;51.966;5.676;2023-04-03T21:44:36;8.8;47.4
78704;SHT31;68034;51.966;5.676;2023-04-03T21:47:08;8.7;47.7
78704;SHT31;68034;51.966;5.676;2023-04-03T21:49:38;8.7;48.0
78704;SHT31;68034;51.966;5.676;2023-04-03T21:52:08;8.7;48.1
78704;SHT31;68034;51.966;5.676;2023-04-03T21:54:37;8.6;47.5
78704;SHT31;68034;51.966;5.676;2023-04-03T21:57:06;8.6;47.1
78704;SHT31;68034;51.966;5.676;2023-04-03T21:59:35;8.5;47.5
78704;SHT31;68034;51.966;5.676;2023-04-03T22:02:04;8.5;48.5
78704;SHT31;68034;51.966;5.676;2023-04-03T22:04:33;8.5;48.4
78704;SHT31;68034;51.966;5.676;2023-04-03T22:07:03;8.5;48.4
78704;SHT31;68034;51.966;5.676;2023-04-03T22:09:32;8.5;47.9
78704;SHT31;68034;51.966;5.676;2023-04-03T22:12:19;8.5;47.9
78704;SHT31;68034;51.966;5.676;2023-04-03T22:14:48;8.5;47.6
78704;SHT31;68034;51.966;5.676;2023-04-03T22:17:17;8.5;47.9
78704;SHT31;68034;51.966;5.676;2023-04-03T22:19:46;8.4;47.5
78704;SHT31;68034;51.966;5.676;2023-04-03T22:22:15;8.4;47.8
78704;SHT31;68034;51.966;5.676;2023-04-03T22:24:44;8.4;47.8
78704;SHT31;68034;51.966;5.676;2023-04-03T22:27:13;8.3;48.2
78704;SHT31;68034;51.966;5.676;2023-04-03T22:29:42;8.3;48.5
78704;SHT31;68034;51.966;5.676;2023-04-03T22:32:11;8.3;48.3
78704;SHT31;68034;51.966;5.676;2023-04-03T22:34:40;8.3;48.1
78704;SHT31;68034;51.966;5.676;2023-04-03T22:37:12;8.3;46.9
78704;SHT31;68034;51.966;5.676;2023-04-03T22:39:41;8.4;47.5
78704;SHT31;68034;51.966;5.676;2023-04-03T22:42:09;8.3;47.7
78704;SHT31;68034;51.966;5.676;2023-04-03T22:44:40;8.3;48.0
78704;SHT31;68034;51.966;5.676;2023-04-03T22:47:09;8.3;47.9
78704;SHT31;68034;51.966;5.676;2023-04-03T22:49:38;8.2;49.0
78704;SHT31;68034;51.966;5.676;2023-04-03T22:52:08;8.2;48.8
78704;SHT31;68034;51.966;5.676;2023-04-03T22:54:37;8.2;48.8
78704;SHT31;68034;51.966;5.676;2023-04-03T22:57:06;8.1;48.5
78704;SHT31;68034;51.966;5.676;2023-04-03T22:59:35;8.1;48.1
78704;SHT31;68034;51.966;5.676;2023-04-03T23:02:04;8.0;47.5
78704;SHT31;68034;51.966;5.676;2023-04-03T23:04:32;7.9;48.0
78704;SHT31;68034;51.966;5.676;2023-04-03T23:07:01;7.8;48.7
78704;SHT31;68034;51.966;5.676;2023-04-03T23:09:30;7.7;48.7
78704;SHT31;68034;51.966;5.676;2023-04-03T23:11:59;7.7;48.6
78704;SHT31;68034;51.966;5.676;2023-04-03T23:14:28;7.6;49.0
78704;SHT31;68034;51.966;5.676;2023-04-03T23:16:57;7.6;49.4
78704;SHT31;68034;51.966;5.676;2023-04-03T23:19:31;7.5;49.6
78704;SHT31;68034;51.966;5.676;2023-04-03T23:22:00;7.5;50.6
78704;SHT31;68034;51.966;5.676;2023-04-03T23:24:30;7.4;50.6
78704;SHT31;68034;51.966;5.676;2023-04-03T23:26:58;7.4;50.6
78704;SHT31;68034;51.966;5.676;2023-04-03T23:29:28;7.4;50.2
78704;SHT31;68034;51.966;5.676;2023-04-03T23:31:58;7.4;50.1
78704;SHT31;68034;51.966;5.676;2023-04-03T23:34:30;7.3;49.5
78704;SHT31;68034;51.966;5.676;2023-04-03T23:36:59;7.3;49.9
78704;SHT31;68034;51.966;5.676;2023-04-03T23:39:28;7.2;49.6
78704;SHT31;68034;51.966;5.676;2023-04-03T23:42:00;7.2;51.2
78704;SHT31;68034;51.966;5.676;2023-04-03T23:44:30;7.1;51.0
78704;SHT31;68034;51.966;5.676;2023-04-03T23:46:59;7.2;50.7
78704;SHT31;68034;51.966;5.676;2023-04-03T23:49:28;7.2;50.9
78704;SHT31;68034;51.966;5.676;2023-04-03T23:51:59;7.3;51.6
78704;SHT31;68034;51.966;5.676;2023-04-03T23:54:28;7.3;50.9
78704;SHT31;68034;51.966;5.676;2023-04-03T23:56:57;7.3;50.7
78704;SHT31;68034;51.966;5.676;2023-04-03T23:59:27;7.3;49.6
